Time;durP1;ratioP1;P1;durP2;ratioP2;P2;SDS_P1;SDS_P2;PMS_P1;PMS_P2;Temp;Humidity;BMP_temperature;BMP_pressure;BME280_temperature;BME280_humidity;BME280_pressure;Samples;Min_cycle;Max_cycle;Signal;HPM_P1;HPM_P2
2021/01/01 00:00:33;;;;;;;19.30;11.05;;;;;;;2.12;nan;95243.25;4926026;29;20599;-51
2021/01/01 00:03:00;;;;;;;19.38;11.68;;;;;;;2.24;nan;95247.75;4919454;28;20703;-47
2021/01/01 00:05:28;;;;;;;18.88;10.65;;;;;;;2.33;nan;95249.00;4921081;29;20279;-49
2021/01/01 00:07:55;;;;;;;22.05;11.00;;;;;;;2.34;nan;95251.50;4923704;28;20270;-47
2021/01/01 00:10:22;;;;;;;19.17;10.70;;;;;;;2.30;nan;95252.56;4921369;29;20735;-50
2021/01/01 00:12:58;;;;;;;17.67;10.25;;;;;;;2.23;nan;95251.22;4921653;28;20225;-51
2021/01/01 00:15:24;;;;;;;19.60;9.95;;;;;;;2.21;nan;95250.44;4923409;29;20275;-47
2021/01/01 00:17:51;;;;;;;14.70;9.38;;;;;;;2.16;nan;95251.59;4920087;28;20251;-48
2021/01/01 00:20:18;;;;;;;17.85;9.80;;;;;;;2.16;nan;95252.44;4922127;29;20726;-51
2021/01/01 00:22:46;;;;;;;19.05;9.55;;;;;;;2.35;nan;95263.41;4921202;28;20757;-48
2021/01/01 00:25:13;;;;;;;16.67;9.95;;;;;;;2.36;nan;95252.22;4922630;29;20308;-48
2021/01/01 00:27:40;;;;;;;12.85;7.97;;;;;;;2.47;nan;95257.66;4920091;28;20743;-51
2021/01/01 00:30:10;;;;;;;13.57;8.57;;;;;;;2.58;nan;95268.16;4918029;29;20208;-47
2021/01/01 00:32:39;;;;;;;16.27;8.07;;;;;;;2.67;nan;95262.56;4921335;28;20255;-51
2021/01/01 00:35:07;;;;;;;14.20;9.20;;;;;;;2.76;nan;95269.78;4917129;29;20220;-51
2021/01/01 00:37:35;;;;;;;13.57;8.90;;;;;;;2.76;nan;95261.25;4920132;28;20675;-47
2021/01/01 00:40:04;;;;;;;16.08;9.55;;;;;;;2.84;nan;95265.06;4929968;29;20213;-47
2021/01/01 00:42:34;;;;;;;14.77;8.85;;;;;;;2.90;nan;95263.91;4932539;28;20730;-47
2021/01/01 00:45:02;;;;;;;18.33;9.55;;;;;;;2.93;nan;95259.44;4939377;28;20203;-50
2021/01/01 00:47:28;;;;;;;18.15;10.82;;;;;;;2.94;nan;95266.22;4938728;28;20258;-47
2021/01/01 00:49:55;;;;;;;14.05;8.90;;;;;;;2.97;nan;95268.66;4939291;28;20581;-51
2021/01/01 00:52:22;;;;;;;19.25;11.02;;;;;;;3.01;nan;95272.69;4939712;28;20551;-51
2021/01/01 00:54:49;;;;;;;16.73;9.35;;;;;;;2.94;nan;95266.22;4941402;28;20703;-47
2021/01/01 00:57:16;;;;;;;21.73;9.88;;;;;;;2.96;nan;95269.56;4940851;28;20307;-48
2021/01/01 00:59:43;;;;;;;16.38;8.68;;;;;;;3.02;nan;95269.19;4939539;28;20287;-47
2021/01/01 01:02:10;;;;;;;17.40;9.15;;;;;;;3.08;nan;95268.06;4940441;28;20237;-48
2021/01/01 01:05:20;;;;;;;19.52;9.02;;;;;;;3.12;nan;95278.09;4942731;28;20285;-50
2021/01/01 01:07:47;;;;;;;17.63;9.07;;;;;;;3.18;nan;95275.19;4938703;28;20756;-48
2021/01/01 01:10:15;;;;;;;13.43;8.52;;;;;;;3.20;nan;95280.22;4939634;28;20670;-50
2021/01/01 01:12:43;;;;;;;19.08;8.77;;;;;;;3.17;nan;95288.94;4942889;28;20615;-48
2021/01/01 01:15:10;;;;;;;13.25;7.75;;;;;;;3.04;nan;95282.81;4941342;28;20315;-49
2021/01/01 01:17:39;;;;;;;16.52;8.27;;;;;;;3.00;nan;95296.72;4941132;28;20685;-50
2021/01/01 01:20:08;;;;;;;12.35;7.68;;;;;;;3.02;nan;95294.91;4941202;28;20607;-48
2021/01/01 01:22:34;;;;;;;17.60;8.60;;;;;;;3.06;nan;95298.97;4945719;28;20339;-47
2021/01/01 01:25:01;;;;;;;11.32;6.95;;;;;;;3.13;nan;95300.31;4939137;28;20287;-50
2021/01/01 01:27:28;;;;;;;13.02;7.93;;;;;;;3.16;nan;95305.25;4937941;28;20278;-47
2021/01/01 01:29:56;;;;;;;13.90;8.63;;;;;;;3.17;nan;95312.06;4939795;28;20713;-51
2021/01/01 01:32:23;;;;;;;14.85;8.07;;;;;;;3.16;nan;95305.25;4939209;28;20240;-50
2021/01/01 01:34:49;;;;;;;16.40;8.57;;;;;;;3.21;nan;95311.00;4939849;28;20230;-50
2021/01/01 01:37:16;;;;;;;14.80;8.45;;;;;;;3.29;nan;95313.97;4938923;28;20286;-47
2021/01/01 01:39:43;;;;;;;16.45;7.70;;;;;;;3.28;nan;95307.19;4940442;28;20617;-51
2021/01/01 01:42:10;;;;;;;16.95;8.77;;;;;;;3.27;nan;95305.53;4938781;28;20267;-47
2021/01/01 01:44:36;;;;;;;15.60;8.35;;;;;;;3.33;nan;95310.34;4939358;28;20228;-48
2021/01/01 01:47:05;;;;;;;15.32;8.57;;;;;;;3.32;nan;95306.09;4938042;28;20315;-50
2021/01/01 01:49:33;;;;;;;16.23;8.68;;;;;;;3.34;nan;95311.16;4938807;28;20648;-47
2021/01/01 01:52:01;;;;;;;16.88;8.73;;;;;;;3.35;nan;95299.94;4937747;28;20292;-51
2021/01/01 01:54:28;;;;;;;16.58;8.30;;;;;;;3.40;nan;95310.81;4939501;28;20597;-51
2021/01/01 01:56:56;;;;;;;14.73;7.97;;;;;;;3.41;nan;95308.19;4938433;28;20253;-47
2021/01/01 01:59:23;;;;;;;14.82;9.02;;;;;;;3.41;nan;95318.47;4940933;28;20291;-50
2021/01/01 02:01:49;;;;;;;14.90;7.80;;;;;;;3.43;nan;95321.78;4938922;28;20320;-48
2021/01/01 02:04:17;;;;;;;20.55;8.75;;;;;;;3.33;nan;95323.19;4939023;28;20222;-47
2021/01/01 02:06:45;;;;;;;13.02;7.72;;;;;;;3.38;nan;95323.75;4937032;28;20647;-45
2021/01/01 02:09:12;;;;;;;14.63;8.15;;;;;;;3.42;nan;95320.13;4938944;28;20321;-48
2021/01/01 02:11:41;;;;;;;12.57;6.97;;;;;;;3.43;nan;95321.78;4936544;28;20749;-48
2021/01/01 02:14:09;;;;;;;17.30;8.75;;;;;;;3.42;nan;95330.41;4934447;28;20293;-47
2021/01/01 02:16:37;;;;;;;14.88;7.15;;;;;;;3.43;nan;95332.06;4937341;28;20219;-48
2021/01/01 02:19:04;;;;;;;14.63;8.77;;;;;;;3.43;nan;95344.91;4937790;28;20598;-50
2021/01/01 02:21:32;;;;;;;13.68;8.27;;;;;;;3.41;nan;95333.88;4936710;28;20941;-50
2021/01/01 02:24:00;;;;;;;14.30;8.70;;;;;;;3.44;nan;95344.00;4939203;28;20302;-51
2021/01/01 02:26:26;;;;;;;15.25;8.55;;;;;;;3.42;nan;95335.53;4937702;28;20254;-47
2021/01/01 02:28:53;;;;;;;19.08;8.95;;;;;;;3.49;nan;95344.59;4938105;28;20614;-51
2021/01/01 02:31:20;;;;;;;12.88;8.00;;;;;;;3.41;nan;95349.31;4938717;28;20282;-51
2021/01/01 02:33:47;;;;;;;16.85;8.50;;;;;;;3.41;nan;95343.34;4937889;28;20705;-47
2021/01/01 02:36:14;;;;;;;15.73;8.60;;;;;;;3.38;nan;95346.91;4937533;28;20211;-50
2021/01/01 02:38:42;;;;;;;17.30;8.50;;;;;;;3.36;nan;95351.31;4937342;28;20255;-51
2021/01/01 02:41:09;;;;;;;19.33;9.23;;;;;;;3.40;nan;95352.81;4931781;28;20703;-47
2021/01/01 02:43:36;;;;;;;14.57;8.10;;;;;;;3.40;nan;95351.97;4936579;28;20306;-51
2021/01/01 02:46:03;;;;;;;17.52;8.77;;;;;;;3.38;nan;95349.47;4937950;28;20297;-47
2021/01/01 02:48:30;;;;;;;15.20;9.10;;;;;;;3.33;nan;95351.47;4936240;28;20216;-48
2021/01/01 02:51:05;;;;;;;15.63;8.32;;;;;;;3.24;nan;95346.81;4936842;28;20297;-51
2021/01/01 02:53:32;;;;;;;17.52;10.65;;;;;;;3.33;nan;95346.34;4936956;28;20258;-51
2021/01/01 02:55:59;;;;;;;16.63;9.68;;;;;;;3.37;nan;95347.81;4936609;28;20235;-50
2021/01/01 02:58:27;;;;;;;13.80;8.30;;;;;;;3.31;nan;95353.28;4936295;28;20351;-47
2021/01/01 03:00:53;;;;;;;14.90;8.85;;;;;;;3.38;nan;95356.38;4936259;28;20206;-47
2021/01/01 03:03:20;;;;;;;17.90;9.80;;;;;;;3.42;nan;95360.41;4937122;28;20791;-51
2021/01/01 03:05:49;;;;;;;18.13;9.73;;;;;;;3.47;nan;95359.28;4935308;28;20655;-48
2021/01/01 03:08:16;;;;;;;18.55;10.23;;;;;;;3.40;nan;95342.53;4940126;28;20400;-48
2021/01/01 03:10:43;;;;;;;18.23;10.15;;;;;;;3.41;nan;95349.31;4940060;28;20256;-49
2021/01/01 03:13:10;;;;;;;16.75;10.25;;;;;;;3.29;nan;95347.41;4939288;28;20669;-48
2021/01/01 03:15:37;;;;;;;17.40;9.30;;;;;;;3.33;nan;95345.50;4940545;28;20217;-45
2021/01/01 03:18:05;;;;;;;21.30;11.02;;;;;;;3.39;nan;95345.97;4939609;28;20313;-48
2021/01/01 03:20:32;;;;;;;15.38;8.95;;;;;;;3.43;nan;95344.91;4940230;28;20728;-45
2021/01/01 03:22:58;;;;;;;13.85;8.40;;;;;;;3.42;nan;95342.41;4939455;28;20302;-45
2021/01/01 03:25:25;;;;;;;19.35;9.50;;;;;;;3.42;nan;95352.69;4940596;28;20574;-48
2021/01/01 03:27:52;;;;;;;17.15;9.48;;;;;;;3.38;nan;95344.31;4938181;28;20246;-49
2021/01/01 03:30:20;;;;;;;17.73;9.40;;;;;;;3.37;nan;95340.09;4943039;28;20290;-49
2021/01/01 03:32:47;;;;;;;17.05;9.18;;;;;;;3.43;nan;95350.06;4941848;28;20322;-45
2021/01/01 03:35:15;;;;;;;15.95;9.55;;;;;;;3.42;nan;95345.84;4944162;28;20207;-49
2021/01/01 03:37:41;;;;;;;14.57;8.45;;;;;;;3.41;nan;95354.47;4945322;28;20339;-45
2021/01/01 03:40:09;;;;;;;15.32;9.73;;;;;;;3.33;nan;95356.63;4938299;28;20653;-50
2021/01/01 03:42:36;;;;;;;17.05;9.30;;;;;;;3.35;nan;95353.94;4943649;28;20234;-46
2021/01/01 03:45:07;;;;;;;18.75;9.57;;;;;;;3.35;nan;95354.78;4944252;28;20257;-46
2021/01/01 03:47:34;;;;;;;19.30;9.38;;;;;;;3.39;nan;95350.31;4945175;28;20627;-50
2021/01/01 03:50:01;;;;;;;14.80;9.20;;;;;;;3.42;nan;95350.97;4944957;28;20198;-46
2021/01/01 03:52:29;;;;;;;17.42;8.70;;;;;;;3.41;nan;95353.63;4945838;28;20333;-46
2021/01/01 03:54:56;;;;;;;15.25;8.65;;;;;;;3.42;nan;95355.28;4939845;28;20765;-50
2021/01/01 03:57:22;;;;;;;19.27;9.90;;;;;;;3.37;nan;95347.81;4945520;28;20603;-49
2021/01/01 03:59:49;;;;;;;17.10;8.70;;;;;;;3.36;nan;95355.59;4946862;28;20242;-46
2021/01/01 04:02:16;;;;;;;15.90;8.95;;;;;;;3.37;nan;95359.84;4944580;28;20743;-49
2021/01/01 04:04:43;;;;;;;14.00;8.10;;;;;;;3.35;nan;95356.50;4942947;28;20292;-49
2021/01/01 04:07:10;;;;;;;13.50;8.70;;;;;;;3.35;nan;95353.94;4943231;28;20318;-49
2021/01/01 04:09:37;;;;;;;16.27;8.48;;;;;;;3.31;nan;95353.28;4943279;28;20199;-46
2021/01/01 04:12:05;;;;;;;14.98;8.75;;;;;;;3.34;nan;95353.13;4944322;28;20739;-46
2021/01/01 04:14:31;;;;;;;14.48;7.38;;;;;;;3.35;nan;95353.94;4943746;28;20241;-49
2021/01/01 04:16:58;;;;;;;18.75;9.88;;;;;;;3.30;nan;95349.06;4942849;28;20799;-46
2021/01/01 04:19:25;;;;;;;16.55;7.85;;;;;;;3.34;nan;95360.00;4943052;28;20207;-46
2021/01/01 04:21:52;;;;;;;17.08;9.65;;;;;;;3.34;nan;95354.84;4940949;28;20277;-46
2021/01/01 04:24:20;;;;;;;15.80;8.90;;;;;;;3.33;nan;95366.91;4943477;28;20203;-48
2021/01/01 04:26:46;;;;;;;14.80;8.30;;;;;;;3.33;nan;95364.34;4941936;28;20760;-46
2021/01/01 04:29:13;;;;;;;19.23;9.07;;;;;;;3.27;nan;95362.09;4942725;28;20761;-49
2021/01/01 04:31:40;;;;;;;20.40;9.77;;;;;;;3.23;nan;95355.44;4940994;28;20659;-49
2021/01/01 04:34:07;;;;;;;17.67;9.55;;;;;;;3.05;nan;95361.56;4937356;28;20203;-46
2021/01/01 04:36:35;;;;;;;20.00;9.98;;;;;;;2.95;nan;95368.06;4943665;28;20233;-48
2021/01/01 04:39:03;;;;;;;19.80;9.55;;;;;;;2.93;nan;95367.34;4943055;28;20286;-49
2021/01/01 04:41:31;;;;;;;22.10;12.10;;;;;;;3.05;nan;95369.28;4944137;28;20851;-45
2021/01/01 04:43:58;;;;;;;17.08;9.98;;;;;;;3.16;nan;95366.13;4942663;28;20289;-48
2021/01/01 04:46:25;;;;;;;18.38;10.18;;;;;;;3.17;nan;95363.47;4944183;28;20701;-46
2021/01/01 04:48:52;;;;;;;18.05;9.35;;;;;;;3.10;nan;95372.41;4940847;28;20314;-46
2021/01/01 04:51:19;;;;;;;15.65;9.93;;;;;;;3.08;nan;95371.66;4940039;28;20526;-45
2021/01/01 04:53:48;;;;;;;18.52;10.00;;;;;;;3.17;nan;95366.03;4947782;28;20720;-49
2021/01/01 04:56:15;;;;;;;20.02;10.80;;;;;;;3.13;nan;95374.84;4943046;28;20677;-48
2021/01/01 04:58:43;;;;;;;16.33;8.25;;;;;;;3.12;nan;95373.19;4941409;28;20227;-49
2021/01/01 05:01:09;;;;;;;19.17;9.05;;;;;;;3.05;nan;95383.84;4943729;28;20317;-45
2021/01/01 05:03:36;;;;;;;16.13;8.32;;;;;;;3.04;nan;95375.34;4941998;28;20239;-46
2021/01/01 05:06:03;;;;;;;11.45;6.80;;;;;;;3.05;nan;95381.28;4944188;28;20546;-46
2021/01/01 05:08:32;;;;;;;9.20;6.13;;;;;;;3.03;nan;95377.97;4940965;28;20674;-50
2021/01/01 05:11:05;;;;;;;7.45;4.78;;;;;;;3.08;nan;95386.28;4944760;28;20588;-45
2021/01/01 05:13:33;;;;;;;8.50;5.30;;;;;;;3.17;nan;95386.59;4940621;28;20253;-49
2021/01/01 05:16:01;;;;;;;7.07;4.43;;;;;;;3.14;nan;95391.91;4941205;28;20221;-49
2021/01/01 05:18:29;;;;;;;7.40;4.53;;;;;;;3.03;nan;95394.19;4940975;28;20233;-49
2021/01/01 05:20:57;;;;;;;7.47;4.45;;;;;;;3.07;nan;95400.00;4940997;28;20203;-45
2021/01/01 05:23:26;;;;;;;6.05;4.00;;;;;;;3.09;nan;95395.66;4940731;28;20227;-47
2021/01/01 05:26:09;;;;;;;5.93;4.13;;;;;;;2.99;nan;95390.16;4940279;28;20581;-46
2021/01/01 05:28:56;;;;;;;5.47;3.20;;;;;;;2.97;nan;95393.69;4939932;28;20612;-46
2021/01/01 05:31:25;;;;;;;7.45;4.28;;;;;;;2.84;nan;95372.13;4939930;28;20682;-46
2021/01/01 05:33:59;;;;;;;6.25;3.40;;;;;;;2.87;nan;95392.53;4938487;28;20285;-49
2021/01/01 05:36:35;;;;;;;5.47;3.55;;;;;;;2.88;nan;95404.47;4937270;28;20214;-45
2021/01/01 05:39:05;;;;;;;7.13;3.45;;;;;;;2.89;nan;95401.81;4941200;28;20203;-49
2021/01/01 05:41:36;;;;;;;6.32;3.50;;;;;;;2.82;nan;95403.03;4941061;28;20266;-46
2021/01/01 05:44:10;;;;;;;3.78;2.80;;;;;;;2.74;nan;95412.88;4942243;28;20290;-49
2021/01/01 05:46:53;;;;;;;5.55;3.78;;;;;;;2.71;nan;95415.59;4935235;28;20308;-46
2021/01/01 05:49:24;;;;;;;6.80;4.60;;;;;;;2.71;nan;95423.28;4938689;28;20531;-45
2021/01/01 05:52:07;;;;;;;5.40;4.13;;;;;;;2.73;nan;95420.66;4940041;28;20626;-45
2021/01/01 05:54:35;;;;;;;6.82;3.75;;;;;;;2.68;nan;95431.16;4938475;28;20257;-48
2021/01/01 05:57:04;;;;;;;4.60;3.58;;;;;;;2.71;nan;95428.44;4939454;28;20776;-48
2021/01/01 05:59:35;;;;;;;4.72;2.97;;;;;;;2.60;nan;95420.44;4940993;28;20208;-46
2021/01/01 06:02:05;;;;;;;5.72;3.22;;;;;;;2.51;nan;95426.03;4940627;28;20232;-46
2021/01/01 06:04:33;;;;;;;5.03;3.60;;;;;;;2.53;nan;95423.38;4942217;28;20209;-49
2021/01/01 06:07:05;;;;;;;8.68;3.60;;;;;;;2.59;nan;95429.03;4939909;28;20211;-48
2021/01/01 06:09:33;;;;;;;6.63;3.47;;;;;;;2.57;nan;95440.31;4939833;28;20184;-45
2021/01/01 06:12:06;;;;;;;5.78;3.90;;;;;;;2.58;nan;95439.41;4944636;28;20216;-48
2021/01/01 06:14:35;;;;;;;5.75;3.10;;;;;;;2.65;nan;95439.00;4939787;28;20197;-45
2021/01/01 06:17:43;;;;;;;5.53;3.10;;;;;;;2.74;nan;95436.00;4942292;28;20712;-45
2021/01/01 06:20:18;;;;;;;5.47;3.30;;;;;;;2.76;nan;95447.03;4935611;28;20235;-45
2021/01/01 06:23:00;;;;;;;3.80;3.40;;;;;;;2.84;nan;95452.59;4940575;28;20717;-45
2021/01/01 06:25:28;;;;;;;4.80;3.00;;;;;;;2.87;nan;95455.00;4948255;28;20238;-49
2021/01/01 06:27:55;;;;;;;3.75;2.67;;;;;;;2.89;nan;95453.19;4940423;28;20823;-48
2021/01/01 06:30:24;;;;;;;2.72;1.92;;;;;;;2.88;nan;95456.66;4943102;28;20213;-46
2021/01/01 06:32:52;;;;;;;2.85;2.40;;;;;;;2.84;nan;95449.19;4940938;28;20638;-48
2021/01/01 06:35:21;;;;;;;2.85;2.05;;;;;;;2.82;nan;95457.00;4940387;28;20650;-48
2021/01/01 06:37:49;;;;;;;3.85;2.30;;;;;;;2.83;nan;95455.22;4940356;28;20599;-49
2021/01/01 06:40:37;;;;;;;5.72;2.88;;;;;;;2.79;nan;95469.97;4939773;28;20615;-46
2021/01/01 06:43:06;;;;;;;3.55;2.17;;;;;;;2.80;nan;95479.34;4945110;28;20353;-45
2021/01/01 06:45:41;;;;;;;3.50;2.35;;;;;;;2.75;nan;95486.47;4941429;28;20552;-49
2021/01/01 06:48:10;;;;;;;4.35;2.42;;;;;;;2.71;nan;95479.78;4937986;28;20230;-45
2021/01/01 06:50:40;;;;;;;2.78;1.70;;;;;;;2.68;nan;95479.97;4940241;28;20189;-49
2021/01/01 06:53:19;;;;;;;2.53;1.70;;;;;;;2.63;nan;95499.88;4941081;28;20222;-48
2021/01/01 06:55:48;;;;;;;2.25;1.67;;;;;;;2.61;nan;95498.31;4940840;28;20679;-49
2021/01/01 06:58:15;;;;;;;2.78;1.67;;;;;;;2.65;nan;95499.81;4944033;23;20826;-49
2021/01/01 07:00:55;;;;;;;3.17;2.05;;;;;;;2.65;nan;95504.97;4921208;29;20208;-49
2021/01/01 07:03:44;;;;;;;2.40;1.80;;;;;;;2.54;nan;95491.81;4938466;23;20227;-48
2021/01/01 07:06:47;;;;;;;2.00;1.70;;;;;;;2.56;nan;95503.66;4896127;29;20593;-48
2021/01/01 07:09:15;;;;;;;4.43;2.15;;;;;;;2.61;nan;95494.00;4903805;29;20753;-45
2021/01/01 07:11:43;;;;;;;3.55;2.47;;;;;;;2.56;nan;95495.97;4906055;29;20232;-49
2021/01/01 07:14:19;;;;;;;3.45;2.28;;;;;;;2.64;nan;95504.13;4901496;29;20260;-45
2021/01/01 07:17:08;;;;;;;2.90;2.05;;;;;;;2.67;nan;95506.56;4902474;29;20280;-49
2021/01/01 07:22:38;;;;;;;6.45;3.22;;;;;;;2.63;nan;95510.16;4884311;29;20627;-67
2021/01/01 07:25:07;;;;;;;7.25;3.92;;;;;;;2.71;nan;95515.75;4883153;29;20661;-68
2021/01/01 07:27:36;;;;;;;5.90;3.80;;;;;;;2.79;nan;95503.38;4882477;29;20228;-68
2021/01/01 07:30:11;;;;;;;5.65;3.35;;;;;;;2.73;nan;95508.78;4884858;29;20942;-69
2021/01/01 07:32:38;;;;;;;4.68;2.28;;;;;;;2.74;nan;95518.19;4882836;29;20316;-68
2021/01/01 07:35:09;;;;;;;4.82;2.53;;;;;;;2.77;nan;95532.59;4885764;29;20280;-69
2021/01/01 07:37:37;;;;;;;6.25;3.28;;;;;;;2.82;nan;95531.50;4891689;29;20232;-68
2021/01/01 07:40:05;;;;;;;4.07;2.45;;;;;;;2.80;nan;95537.59;4882629;29;20203;-67
2021/01/01 07:42:46;;;;;;;3.35;1.88;;;;;;;2.81;nan;95526.41;4884079;29;20225;-68
2021/01/01 07:45:14;;;;;;;3.10;2.65;;;;;;;2.79;nan;95531.63;4882634;29;20314;-68
2021/01/01 07:47:45;;;;;;;2.28;1.85;;;;;;;2.84;nan;95541.66;4887816;29;20232;-68
2021/01/01 07:50:14;;;;;;;3.38;2.40;;;;;;;2.88;nan;95543.19;4879726;29;20226;-69
2021/01/01 07:52:41;;;;;;;4.10;2.58;;;;;;;2.86;nan;95535.56;4886017;29;20293;-69
2021/01/01 07:55:10;;;;;;;3.30;1.70;;;;;;;2.92;nan;95539.56;4878160;29;20511;-69
2021/01/01 07:57:39;;;;;;;3.42;2.42;;;;;;;2.93;nan;95547.19;4882981;29;20259;-69
2021/01/01 08:00:08;;;;;;;4.03;2.30;;;;;;;2.97;nan;95546.16;4882436;29;20315;-69
2021/01/01 08:02:35;;;;;;;5.90;2.50;;;;;;;2.98;nan;95540.09;4886182;29;20297;-69
2021/01/01 08:05:05;;;;;;;3.45;2.30;;;;;;;3.01;nan;95539.94;4893429;29;20212;-69
2021/01/01 08:07:33;;;;;;;3.30;1.98;;;;;;;3.07;nan;95544.78;4884073;29;20258;-69
2021/01/01 08:09:59;;;;;;;3.47;2.15;;;;;;;3.09;nan;95547.28;4882565;29;20229;-69
2021/01/01 08:12:26;;;;;;;2.70;2.30;;;;;;;3.05;nan;95562.00;4887968;29;20220;-69
2021/01/01 08:14:55;;;;;;;3.03;2.05;;;;;;;2.87;nan;95564.66;4882036;29;20205;-68
2021/01/01 08:17:28;;;;;;;8.98;5.80;;;;;;;2.82;nan;95562.31;4881586;29;20535;-69
2021/01/01 08:19:56;;;;;;;4.75;2.85;;;;;;;2.84;nan;95555.34;4888415;29;20209;-69
2021/01/01 08:22:28;;;;;;;4.75;3.28;;;;;;;2.87;nan;95562.91;4881097;29;20705;-68
2021/01/01 08:24:56;;;;;;;9.18;5.53;;;;;;;2.68;nan;95567.28;4880368;29;20673;-69
2021/01/01 08:27:25;;;;;;;10.95;5.35;;;;;;;2.60;nan;95564.25;4881831;29;20308;-68
2021/01/01 08:29:54;;;;;;;10.18;5.25;;;;;;;2.73;nan;95567.88;4880584;29;20272;-69
2021/01/01 08:32:23;;;;;;;10.60;5.75;;;;;;;2.82;nan;95557.19;4881694;29;20335;-68
2021/01/01 08:34:51;;;;;;;10.77;5.80;;;;;;;2.87;nan;95544.09;4883219;29;20650;-68
2021/01/01 08:37:19;;;;;;;8.20;4.93;;;;;;;3.10;nan;95560.03;4885424;29;20311;-69
2021/01/01 08:39:46;;;;;;;5.20;3.10;;;;;;;3.22;nan;95569.72;4881909;29;20594;-69
2021/01/01 08:42:22;;;;;;;4.18;3.10;;;;;;;3.20;nan;95570.69;4883330;29;20779;-68
2021/01/01 08:44:49;;;;;;;6.00;2.78;;;;;;;3.26;nan;95573.81;4883711;29;20566;-68
2021/01/01 08:47:17;;;;;;;5.55;3.60;;;;;;;3.24;nan;95575.59;4881841;29;20734;-70
2021/01/01 08:49:43;;;;;;;5.65;3.25;;;;;;;3.30;nan;95572.72;4881530;29;20200;-68
2021/01/01 08:52:12;;;;;;;5.55;3.30;;;;;;;3.25;nan;95574.72;4882223;29;20614;-69
2021/01/01 08:54:39;;;;;;;6.65;3.70;;;;;;;3.30;nan;95585.56;4881467;29;20199;-68
2021/01/01 08:57:06;;;;;;;9.75;3.78;;;;;;;3.29;nan;95586.50;4881454;29;20243;-68
2021/01/01 08:59:33;;;;;;;8.57;4.32;;;;;;;3.17;nan;95581.94;4881023;29;20288;-68
2021/01/01 09:02:00;;;;;;;9.85;4.90;;;;;;;3.27;nan;95593.47;4889886;29;20328;-68
2021/01/01 09:04:29;;;;;;;7.35;4.05;;;;;;;3.20;nan;95580.97;4880898;29;20205;-68
2021/01/01 09:06:58;;;;;;;5.43;2.95;;;;;;;3.35;nan;95587.91;4881438;29;20684;-68
2021/01/01 09:09:29;;;;;;;3.90;2.58;;;;;;;3.33;nan;95590.59;4888817;29;20288;-68
2021/01/01 09:12:12;;;;;;;3.08;2.33;;;;;;;3.54;nan;95586.91;4879609;29;20312;-68
2021/01/01 09:14:50;;;;;;;5.65;2.95;;;;;;;3.55;nan;95604.03;4881574;29;20227;-68
2021/01/01 09:17:19;;;;;;;5.50;3.35;;;;;;;3.46;nan;95608.78;4878889;29;20584;-68
2021/01/01 09:19:48;;;;;;;6.78;3.17;;;;;;;3.39;nan;95605.69;4884220;29;20201;-68
2021/01/01 09:22:19;;;;;;;307.58;150.55;;;;;;;3.31;nan;95615.53;4885532;29;20618;-68
2021/01/01 09:24:47;;;;;;;6.35;3.63;;;;;;;3.24;nan;95614.16;4882468;29;20288;-68
2021/01/01 09:27:14;;;;;;;6.97;3.25;;;;;;;3.27;nan;95624.31;4884616;29;20652;-68
2021/01/01 09:29:41;;;;;;;6.30;3.63;;;;;;;3.11;nan;95618.25;4885038;29;20652;-68
2021/01/01 09:32:10;;;;;;;3.97;2.88;;;;;;;3.06;nan;95617.66;4878198;29;20556;-68
2021/01/01 09:34:37;;;;;;;4.18;2.80;;;;;;;3.05;nan;95608.28;4879883;29;20228;-68
2021/01/01 09:37:11;;;;;;;4.43;2.80;;;;;;;3.18;nan;95609.34;4890991;29;20754;-68
2021/01/01 09:39:38;;;;;;;3.60;2.72;;;;;;;3.38;nan;95613.50;4881072;29;20291;-68
2021/01/01 09:42:06;;;;;;;4.63;2.60;;;;;;;3.34;nan;95620.53;4880337;29;20659;-68
2021/01/01 09:44:32;;;;;;;4.95;2.10;;;;;;;3.28;nan;95619.97;4884706;29;20511;-68
2021/01/01 09:46:59;;;;;;;4.32;3.22;;;;;;;3.47;nan;95625.88;4879926;29;20556;-68
2021/01/01 09:49:26;;;;;;;2.53;2.00;;;;;;;3.56;nan;95622.84;4882329;29;20208;-68
2021/01/01 09:51:53;;;;;;;3.90;2.55;;;;;;;3.74;nan;95621.94;4881694;29;20272;-68
2021/01/01 09:54:41;;;;;;;4.55;2.60;;;;;;;3.89;nan;95624.53;4881689;29;20201;-68
2021/01/01 09:57:07;;;;;;;3.45;2.58;;;;;;;3.90;nan;95628.75;4887952;29;20224;-68
2021/01/01 09:59:34;;;;;;;4.50;2.50;;;;;;;4.11;nan;95620.75;4881164;29;20524;-68
2021/01/01 10:02:01;;;;;;;5.13;3.22;;;;;;;4.13;nan;95621.50;4880853;29;20308;-68
2021/01/01 10:04:29;;;;;;;5.35;2.85;;;;;;;3.92;nan;95624.38;4887614;29;20278;-69
2021/01/01 10:06:56;;;;;;;7.25;3.85;;;;;;;4.17;nan;95635.06;4886973;29;20217;-69
2021/01/01 10:09:22;;;;;;;8.23;3.85;;;;;;;4.25;nan;95632.91;4882789;29;20869;-68
2021/01/01 10:11:51;;;;;;;5.28;3.45;;;;;;;4.36;nan;95635.75;4884216;29;20227;-68
2021/01/01 10:14:17;;;;;;;4.95;3.42;;;;;;;4.37;nan;95638.22;4880269;29;20645;-68
2021/01/01 10:16:47;;;;;;;4.68;3.38;;;;;;;4.43;nan;95631.94;4884519;29;20287;-68
2021/01/01 10:19:14;;;;;;;5.70;3.13;;;;;;;4.43;nan;95639.66;4882559;29;20668;-69
2021/01/01 10:21:41;;;;;;;5.63;3.40;;;;;;;4.32;nan;95645.38;4880136;29;20327;-68
2021/01/01 10:24:08;;;;;;;4.68;3.17;;;;;;;4.38;nan;95641.66;4875273;29;20659;-68
2021/01/01 10:26:35;;;;;;;7.05;4.18;;;;;;;4.58;nan;95631.91;4879330;29;20359;-69
2021/01/01 10:29:07;;;;;;;6.57;3.20;;;;;;;4.85;nan;95634.72;4880195;29;20197;-69
2021/01/01 10:31:34;;;;;;;5.05;3.20;;;;;;;5.02;nan;95630.31;4879855;29;20220;-67
2021/01/01 10:34:01;;;;;;;4.63;3.50;;;;;;;5.40;nan;95628.97;4879715;29;20732;-68
2021/01/01 10:36:28;;;;;;;4.90;3.08;;;;;;;5.90;nan;95623.47;4886741;29;20649;-69
2021/01/01 10:38:55;;;;;;;7.68;3.30;;;;;;;6.03;nan;95616.66;4883500;29;20303;-69
2021/01/01 10:41:22;;;;;;;6.93;3.33;;;;;;;6.19;nan;95620.78;4885324;29;20301;-69
2021/01/01 10:43:49;;;;;;;4.47;3.10;;;;;;;6.41;nan;95617.75;4883719;29;20296;-69
2021/01/01 10:46:16;;;;;;;4.88;3.58;;;;;;;6.20;nan;95619.06;4883538;29;20481;-69
2021/01/01 10:48:43;;;;;;;7.95;3.75;;;;;;;6.00;nan;95609.94;4883607;29;20674;-69
2021/01/01 10:51:10;;;;;;;4.45;2.90;;;;;;;5.66;nan;95615.38;4883535;29;20583;-69
2021/01/01 10:53:38;;;;;;;7.35;3.55;;;;;;;5.21;nan;95619.78;4882710;29;20304;-69
2021/01/01 10:56:06;;;;;;;6.63;3.20;;;;;;;5.35;nan;95625.84;4890330;29;20232;-68
2021/01/01 10:58:35;;;;;;;5.40;3.25;;;;;;;5.55;nan;95616.94;4888348;29;20648;-69
2021/01/01 11:01:02;;;;;;;6.07;3.70;;;;;;;5.81;nan;95618.88;4884045;29;20676;-69
2021/01/01 11:03:30;;;;;;;5.40;3.33;;;;;;;5.90;nan;95613.97;4883715;29;20229;-69
2021/01/01 11:05:57;;;;;;;4.97;3.13;;;;;;;5.33;nan;95621.69;4884607;29;20296;-69
2021/01/01 11:08:23;;;;;;;3.15;2.35;;;;;;;5.14;nan;95621.03;4883528;29;20656;-69
2021/01/01 11:10:50;;;;;;;5.15;2.85;;;;;;;5.13;nan;95624.53;4884157;29;20297;-69
2021/01/01 11:13:17;;;;;;;5.20;3.13;;;;;;;5.00;nan;95623.56;4882920;29;20754;-68
2021/01/01 12:22:27;;;;;;;7.88;4.57;;;;;;;6.46;nan;95582.09;4887178;29;21086;-69
2021/01/01 12:24:56;;;;;;;2.95;2.08;;;;;;;6.53;nan;95583.38;4882281;29;20201;-69
2021/01/01 12:27:26;;;;;;;2.55;1.67;;;;;;;7.47;nan;95579.78;4881363;29;20311;-69
2021/01/01 12:29:53;;;;;;;3.45;2.15;;;;;;;8.02;nan;95577.72;4880028;29;20233;-69
2021/01/01 12:32:22;;;;;;;2.63;2.00;;;;;;;8.25;nan;95579.56;4883649;29;20609;-69
2021/01/01 12:34:48;;;;;;;2.90;2.00;;;;;;;8.20;nan;95580.84;4883421;29;20621;-69
2021/01/01 12:37:15;;;;;;;6.30;2.53;;;;;;;8.64;nan;95582.00;4885141;29;20936;-69
2021/01/01 12:39:42;;;;;;;3.33;1.73;;;;;;;8.54;nan;95587.00;4881969;29;20952;-69
2021/01/01 12:42:10;;;;;;;2.90;1.87;;;;;;;8.40;nan;95578.50;4882242;29;20548;-69
2021/01/01 12:44:39;;;;;;;1.70;1.30;;;;;;;8.04;nan;95585.38;4885990;29;20484;-69
2021/01/01 12:47:06;;;;;;;2.90;1.80;;;;;;;7.93;nan;95582.69;4880588;29;20504;-69
2021/01/01 12:49:33;;;;;;;2.27;1.90;;;;;;;8.38;nan;95585.56;4881637;29;20464;-69
2021/01/01 12:52:00;;;;;;;1.70;1.40;;;;;;;9.08;nan;95587.44;4881556;29;20966;-69
2021/01/01 12:54:27;;;;;;;6.20;3.07;;;;;;;9.32;nan;95586.50;4882135;29;20461;-69
2021/01/01 12:56:54;;;;;;;1.60;1.17;;;;;;;9.34;nan;95583.75;4879265;29;20942;-69
2021/01/01 12:59:21;;;;;;;2.37;1.50;;;;;;;9.50;nan;95584.31;4881549;29;20852;-69
2021/01/01 13:01:48;;;;;;;2.20;1.30;;;;;;;9.40;nan;95591.94;4880807;29;20563;-69
2021/01/01 13:04:15;;;;;;;3.17;1.70;;;;;;;7.90;nan;95585.50;4881357;29;20556;-69
2021/01/01 13:06:42;;;;;;;2.10;1.57;;;;;;;7.54;nan;95600.91;4881218;29;20552;-68
2021/01/01 13:09:08;;;;;;;1.93;1.23;;;;;;;7.83;nan;95599.78;4877164;29;20458;-69
2021/01/01 13:11:43;;;;;;;2.00;1.57;;;;;;;8.11;nan;95604.75;4880806;29;21034;-69